Aérodrome :
LOGIN :

S'inscrire | Disclaimer

   EN    FR    IT 

 










Légende :    VFR   VFR Marginal   IFR   IFR Intensif   IFR Très Intensif
Visi : 
Plafond : 
>= 8 km
>= 3000ft
5 à 8 km
1000 à 3000 ft
1500m à 5 km
500 à 1000 ft
800 à 1500m
200 à 500 ft
< 800m
< 200 ft
Symboles :   Orages  Brouillard  Fortes neiges  Fortes précipitations  Vent > 20 kt
SIGMETs :   Divers  Orages  Givrage  Turbulence  Onde Orograph.  Cendres Volcan.






- Altitude de l'aérodrome : 87 ft
- Code IATA : FSC


LFKF - Figari

DERNIER METAR :
  • 150900Z AUTO VRB03KT 9999 ///TCU 27/16 Q1013 BECMG 26015G25KT BKN030

METARs EXPIRÉS :
  • 150830Z AUTO 06004KT 020V100 CAVOK 25/18 Q1013 TEMPO 4000 TSRA SCT020CB BKN033 BECMG 26015G30KT
  • 150800Z AUTO 05006KT 010V090 CAVOK 24/18 Q1013 TEMPO SHRA BKN015 SCT030CB
  • 150730Z AUTO 05008KT 010V080 CAVOK 24/19 Q1013 TEMPO SHRA BKN015 SCT030CB
  • 150700Z AUTO 07005KT 030V110 9999 FEW047 BKN160 22/19 Q1014 TEMPO SHRA BKN015 SCT030CB
  • 150630Z AUTO 07007KT 030V110 9999 SCT046 BKN210 21/19 Q1013 TEMPO SHRA BKN015 SCT030CB

TAF TAF LFKF
Valide du 15 à 09h jusqu'au 16 à 09h UTC


150800Z 1509/1609 06010KT 9999 BKN030
BECMG 1510/1513 26015G25KT
TEMPO 1512/1515 4000 SHRA SCT026TCU
PROB30
TEMPO 1512/1515 TSRA SCT020CB BKN033
BECMG 1518/1521 NSW NSC



MET'MAP, la Météo Aéronautique d'un coup d'oeil ! - Copyright ORBIFLY Décembre 2007 - Disclaimer

ORBIFLY MET'MAP TEAM :

Programmation & Développement : Alexandra Zaïnal
Conception & Développement : Baudouin d'Aumeries
Co-Programmation & Développement : Marc-Olivier Méhu
Soutien technique & logistique : Manuel Goepfert

Contact : metmap@orbifly.com




SOURCES & CREDITS :

   NOAA